createdAt,value
2019-01-30T00:01:04.829Z,-2.14
2019-01-30T00:03:42.810Z,-2.15
2019-01-30T00:06:20.080Z,-2.15
2019-01-30T00:08:53.985Z,-2.18
2019-01-30T00:11:28.469Z,-2.22
2019-01-30T00:14:02.561Z,-2.29
2019-01-30T00:16:38.333Z,-2.29
2019-01-30T00:19:12.623Z,-2.28
2019-01-30T00:21:47.998Z,-2.27
2019-01-30T00:24:27.375Z,-2.31
2019-01-30T00:26:59.258Z,-2.31
2019-01-30T00:29:38.213Z,-2.36
2019-01-30T00:32:15.188Z,-2.38
2019-01-30T00:34:52.720Z,-2.35
2019-01-30T00:37:24.809Z,-2.37
2019-01-30T00:39:56.865Z,-2.40
2019-01-30T00:42:29.035Z,-2.38
2019-01-30T00:45:02.952Z,-2.44
2019-01-30T00:47:36.969Z,-2.47
2019-01-30T00:50:42.093Z,-2.40
2019-01-30T00:53:23.169Z,-2.38
2019-01-30T00:56:01.127Z,-2.36
2019-01-30T00:58:35.081Z,-2.37
2019-01-30T01:01:11.503Z,-2.41
2019-01-30T01:03:43.859Z,-2.36
2019-01-30T01:06:24.449Z,-2.35
2019-01-30T01:09:02.590Z,-2.39
2019-01-30T01:11:43.054Z,-2.45
2019-01-30T01:14:21.019Z,-2.36
2019-01-30T01:16:53.173Z,-2.35
2019-01-30T01:19:27.041Z,-2.29
2019-01-30T01:22:05.198Z,-2.22
2019-01-30T01:24:41.304Z,-2.16
2019-01-30T01:27:23.547Z,-2.21
2019-01-30T01:29:58.745Z,-2.13
2019-01-30T01:32:30.778Z,-2.08
2019-01-30T01:35:16.889Z,-2.09
2019-01-30T01:38:05.098Z,-2.07
2019-01-30T01:40:45.650Z,-2.07
2019-01-30T01:43:21.317Z,-1.95
2019-01-30T01:45:54.177Z,-2.03
2019-01-30T01:48:31.417Z,-1.92
2019-01-30T01:51:09.363Z,-1.90
2019-01-30T01:53:45.271Z,-1.95
2019-01-30T01:56:19.525Z,-2.07
2019-01-30T01:58:55.025Z,-2.02
2019-01-30T02:01:36.858Z,-2.09
2019-01-30T02:04:18.261Z,-2.05
2019-01-30T02:06:53.752Z,-2.03
2019-01-30T02:09:27.620Z,-2.06
2019-01-30T02:12:02.552Z,-2.03
2019-01-30T02:14:40.091Z,-2.02
2019-01-30T02:17:23.492Z,-2.04
2019-01-30T02:20:02.728Z,-2.06
2019-01-30T02:22:42.560Z,-2.16
2019-01-30T02:25:20.492Z,-2.06
2019-01-30T02:27:56.125Z,-2.06
2019-01-30T02:30:47.025Z,-2.09
2019-01-30T02:33:16.715Z,-2.05
2019-01-30T02:35:56.943Z,-2.08
2019-01-30T02:38:38.538Z,-2.19
2019-01-30T02:41:13.259Z,-2.28
2019-01-30T02:43:48.052Z,-2.30
2019-01-30T02:46:30.277Z,-2.30
2019-01-30T02:49:05.148Z,-2.19
2019-01-30T02:51:38.157Z,-2.18
2019-01-30T02:54:12.644Z,-2.10
2019-01-30T02:56:50.357Z,-2.19
2019-01-30T02:59:23.857Z,-2.08
2019-01-30T03:02:25.474Z,-2.09
2019-01-30T03:05:12.449Z,-2.10
2019-01-30T03:07:56.058Z,-2.07
2019-01-30T03:10:35.592Z,-2.02
2019-01-30T03:13:08.573Z,-2.09
2019-01-30T03:15:41.468Z,-2.16
2019-01-30T03:18:29.323Z,-2.22
2019-01-30T03:21:02.827Z,-2.18
2019-01-30T03:23:44.549Z,-2.27
2019-01-30T03:26:14.784Z,-2.34
2019-01-30T03:29:02.665Z,-2.36
2019-01-30T03:31:42.675Z,-2.31
2019-01-30T03:34:23.804Z,-2.32
2019-01-30T03:36:58.789Z,-2.29
2019-01-30T03:39:33.170Z,-2.33
2019-01-30T03:42:05.159Z,-2.42
2019-01-30T03:44:37.041Z,-2.48
2019-01-30T03:47:17.803Z,-2.42
2019-01-30T03:49:53.761Z,-2.49
2019-01-30T03:52:28.474Z,-2.48
2019-01-30T03:55:01.116Z,-2.53
2019-01-30T03:57:37.088Z,-2.59
2019-01-30T04:00:19.420Z,-2.52
2019-01-30T04:02:58.094Z,-2.55
2019-01-30T04:05:35.711Z,-2.60
2019-01-30T04:08:08.741Z,-2.67
2019-01-30T04:10:48.697Z,-2.67
2019-01-30T04:13:31.192Z,-2.57
2019-01-30T04:16:10.039Z,-2.54
2019-01-30T04:18:42.247Z,-2.55
2019-01-30T04:21:42.251Z,-2.61
2019-01-30T04:24:15.671Z,-2.60
2019-01-30T04:26:47.473Z,-2.64
2019-01-30T04:29:19.275Z,-2.71
2019-01-30T04:31:51.121Z,-2.66
2019-01-30T04:34:22.967Z,-2.60
2019-01-30T04:36:54.908Z,-2.54
2019-01-30T04:39:26.840Z,-2.56
2019-01-30T04:41:58.776Z,-2.59
2019-01-30T04:44:30.542Z,-2.69
2019-01-30T04:47:03.451Z,-2.73
2019-01-30T04:49:35.351Z,-2.73
2019-01-30T04:52:07.292Z,-2.90
2019-01-30T04:54:40.273Z,-2.93
2019-01-30T04:57:12.047Z,-2.96
2019-01-30T04:59:44.455Z,-2.96
2019-01-30T05:02:16.311Z,-2.98
2019-01-30T05:04:48.096Z,-2.97
2019-01-30T05:07:20.113Z,-2.85
2019-01-30T05:09:52.035Z,-2.76
2019-01-30T05:12:23.887Z,-2.73
2019-01-30T05:14:55.715Z,-2.76
2019-01-30T05:17:27.532Z,-2.77
2019-01-30T05:19:59.371Z,-2.75
2019-01-30T05:22:31.184Z,-2.79
2019-01-30T05:25:03.119Z,-2.91
2019-01-30T05:27:34.956Z,-2.89
2019-01-30T05:30:11.614Z,-2.97
2019-01-30T05:32:43.503Z,-2.93
2019-01-30T05:35:15.612Z,-2.91
2019-01-30T05:37:47.566Z,-2.97
2019-01-30T05:40:19.932Z,-3.10
2019-01-30T05:42:51.864Z,-3.09
2019-01-30T05:45:23.958Z,-3.19
2019-01-30T05:47:55.854Z,-3.14
2019-01-30T05:50:27.689Z,-3.16
2019-01-30T05:52:59.641Z,-3.20
2019-01-30T05:55:31.584Z,-3.26
2019-01-30T05:58:03.536Z,-3.39
2019-01-30T06:00:42.014Z,-3.18
2019-01-30T06:03:13.871Z,-3.01
2019-01-30T06:05:45.667Z,-3.03
2019-01-30T06:08:17.458Z,-3.05
2019-01-30T06:10:50.830Z,-2.97
2019-01-30T06:13:22.649Z,-3.00
2019-01-30T06:15:54.616Z,-3.12
2019-01-30T06:18:26.442Z,-3.10
2019-01-30T06:20:59.542Z,-3.09
2019-01-30T06:23:31.502Z,-3.20
2019-01-30T06:26:03.395Z,-3.29
2019-01-30T06:28:35.321Z,-3.34
2019-01-30T06:31:07.587Z,-3.28
2019-01-30T06:33:39.408Z,-3.11
2019-01-30T06:36:11.385Z,-3.10
2019-01-30T06:38:43.202Z,-3.10
2019-01-30T06:41:15.009Z,-3.23
2019-01-30T06:43:46.875Z,-3.19
2019-01-30T06:46:18.687Z,-3.09
2019-01-30T06:48:50.474Z,-3.05
2019-01-30T06:51:22.306Z,-2.98
2019-01-30T06:53:54.193Z,-2.98
2019-01-30T06:56:26.172Z,-2.96
2019-01-30T06:59:00.738Z,-2.90
2019-01-30T07:01:33.828Z,-2.85
2019-01-30T07:04:05.670Z,-2.85
2019-01-30T07:06:37.466Z,-2.89
2019-01-30T07:09:12.361Z,-2.79
2019-01-30T07:11:44.153Z,-2.82
2019-01-30T07:14:16.128Z,-2.75
2019-01-30T07:16:48.075Z,-2.75
2019-01-30T07:19:19.998Z,-2.67
2019-01-30T07:21:51.814Z,-2.69
2019-01-30T07:24:23.631Z,-2.63
2019-01-30T07:26:55.826Z,-2.62
2019-01-30T07:29:27.729Z,-2.61
2019-01-30T07:31:59.618Z,-2.58
2019-01-30T07:34:31.586Z,-2.52
2019-01-30T07:37:03.412Z,-2.54
2019-01-30T07:39:35.274Z,-2.46
2019-01-30T07:42:07.355Z,-2.38
2019-01-30T07:44:39.265Z,-2.27
2019-01-30T07:47:11.145Z,-2.27
2019-01-30T07:49:42.964Z,-2.20
2019-01-30T07:52:14.789Z,-2.26
2019-01-30T07:54:46.631Z,-2.19
2019-01-30T07:57:18.551Z,-2.16
2019-01-30T07:59:50.559Z,-2.08
2019-01-30T08:02:23.450Z,-1.98
2019-01-30T08:04:55.373Z,-1.95
2019-01-30T08:07:27.793Z,-1.95
2019-01-30T08:09:59.811Z,-1.89
2019-01-30T08:12:31.724Z,-1.87
2019-01-30T08:15:03.873Z,-1.78
2019-01-30T08:17:35.867Z,-1.75
2019-01-30T08:20:10.821Z,-1.68
2019-01-30T08:22:43.201Z,-1.60
2019-01-30T08:25:18.609Z,-1.54
2019-01-30T08:27:51.005Z,-1.43
2019-01-30T08:30:31.438Z,-1.39
2019-01-30T08:33:05.672Z,-1.35
2019-01-30T08:35:37.598Z,-1.29
2019-01-30T08:38:09.665Z,-1.15
2019-01-30T08:40:41.586Z,-1.02
2019-01-30T08:43:14.687Z,-1.02
2019-01-30T08:45:46.781Z,-0.91
2019-01-30T08:48:18.890Z,-0.87
2019-01-30T08:50:50.772Z,-0.85
2019-01-30T08:53:22.843Z,-0.74
2019-01-30T08:55:54.685Z,-0.66
2019-01-30T08:58:26.819Z,-0.52
2019-01-30T09:00:58.874Z,-0.49
2019-01-30T09:03:31.094Z,-0.50
2019-01-30T09:06:04.921Z,-0.40
2019-01-30T09:08:37.478Z,-0.42
2019-01-30T09:11:09.827Z,-0.32
2019-01-30T09:13:41.925Z,-0.48
2019-01-30T09:16:13.947Z,-0.43
2019-01-30T09:18:46.203Z,-0.27
2019-01-30T09:21:18.329Z,-0.31
2019-01-30T09:23:50.554Z,-0.40
2019-01-30T09:26:22.633Z,-0.34
2019-01-30T09:28:55.873Z,-0.23
2019-01-30T09:31:28.237Z,-0.05
2019-01-30T09:34:00.107Z,0.00
2019-01-30T09:36:32.012Z,-0.13
2019-01-30T09:39:05.247Z,-0.04
2019-01-30T09:41:37.575Z,0.12
2019-01-30T09:44:10.031Z,0.11
2019-01-30T09:46:42.176Z,0.25
2019-01-30T09:49:13.941Z,0.26
2019-01-30T09:51:46.384Z,0.38
2019-01-30T09:54:18.407Z,0.43
2019-01-30T09:56:50.490Z,0.55
2019-01-30T09:59:22.885Z,0.53
2019-01-30T10:01:55.119Z,0.64
2019-01-30T10:04:27.587Z,0.68
2019-01-30T10:06:59.485Z,0.72
2019-01-30T10:09:31.318Z,0.78
2019-01-30T10:12:03.209Z,0.91
2019-01-30T10:14:35.835Z,0.95
2019-01-30T10:17:11.144Z,0.89
2019-01-30T10:19:43.897Z,1.01
2019-01-30T10:22:16.206Z,1.09
2019-01-30T10:24:50.493Z,1.11
2019-01-30T10:27:22.358Z,1.20
2019-01-30T10:29:54.470Z,1.32
2019-01-30T10:32:29.764Z,1.35
2019-01-30T10:35:03.968Z,1.44
2019-01-30T10:37:37.472Z,1.57
2019-01-30T10:40:13.352Z,1.69
2019-01-30T10:42:45.592Z,1.65
2019-01-30T10:45:17.616Z,1.71
2019-01-30T10:47:49.493Z,1.81
2019-01-30T10:50:24.716Z,2.00
2019-01-30T10:52:56.606Z,2.02
2019-01-30T10:55:30.778Z,2.15
2019-01-30T10:58:06.391Z,2.21
2019-01-30T11:00:48.364Z,2.30
2019-01-30T11:03:20.811Z,2.25
2019-01-30T11:05:55.721Z,2.14
2019-01-30T11:08:30.461Z,2.34
2019-01-30T11:11:08.381Z,2.42
2019-01-30T11:13:46.659Z,2.20
2019-01-30T11:16:19.104Z,1.96
2019-01-30T11:18:51.219Z,1.98
2019-01-30T11:21:28.074Z,2.18
2019-01-30T11:24:06.152Z,2.13
2019-01-30T11:26:41.289Z,2.09
2019-01-30T11:29:13.483Z,2.17
2019-01-30T11:31:46.657Z,2.26
2019-01-30T11:34:25.669Z,2.15
2019-01-30T11:37:04.241Z,2.15
2019-01-30T11:39:38.745Z,2.22
2019-01-30T11:42:10.811Z,2.31
2019-01-30T11:44:45.587Z,2.41
2019-01-30T11:47:17.543Z,2.53
2019-01-30T11:49:49.381Z,2.49
2019-01-30T11:52:24.054Z,2.36
2019-01-30T11:54:57.824Z,2.31
2019-01-30T11:57:29.739Z,2.33
2019-01-30T12:00:06.351Z,2.30
2019-01-30T12:02:47.740Z,2.48
2019-01-30T12:05:14.888Z,2.53
2019-01-30T12:07:50.054Z,2.51
2019-01-30T12:10:25.137Z,2.57
2019-01-30T12:12:57.953Z,2.46
2019-01-30T12:15:30.624Z,2.68
2019-01-30T12:18:05.021Z,2.62
2019-01-30T12:20:39.479Z,2.65
2019-01-30T12:23:11.595Z,2.65
2019-01-30T12:25:46.165Z,2.70
2019-01-30T12:28:22.182Z,2.75
2019-01-30T12:30:54.189Z,2.74
2019-01-30T12:33:27.569Z,2.79
2019-01-30T12:35:59.458Z,2.62
2019-01-30T12:38:31.376Z,2.87
2019-01-30T12:41:03.261Z,3.02
2019-01-30T12:43:35.057Z,2.74
2019-01-30T12:46:06.969Z,2.77
2019-01-30T12:48:38.755Z,2.88
2019-01-30T12:51:10.597Z,2.81
2019-01-30T12:53:42.377Z,3.07
2019-01-30T12:56:14.252Z,2.82
2019-01-30T12:58:46.227Z,2.59
2019-01-30T13:01:19.352Z,2.73
2019-01-30T13:03:51.199Z,2.84
2019-01-30T13:06:27.904Z,3.16
2019-01-30T13:09:10.140Z,3.23
2019-01-30T13:11:42.023Z,3.30
2019-01-30T13:14:22.945Z,3.40
2019-01-30T13:16:56.648Z,3.38
2019-01-30T13:19:30.044Z,3.44
2019-01-30T13:22:03.623Z,3.57
2019-01-30T13:24:42.795Z,3.35
2019-01-30T13:27:17.980Z,3.51
2019-01-30T13:29:49.772Z,3.63
2019-01-30T13:32:23.764Z,3.66
2019-01-30T13:34:55.562Z,3.41
2019-01-30T13:37:27.410Z,3.37
2019-01-30T13:40:05.080Z,3.60
2019-01-30T13:42:37.062Z,3.35
2019-01-30T13:45:15.951Z,3.36
2019-01-30T13:47:48.279Z,3.29
2019-01-30T13:50:22.827Z,3.47
2019-01-30T13:52:54.751Z,3.45
2019-01-30T13:55:27.239Z,3.47
2019-01-30T13:57:59.397Z,3.25
2019-01-30T14:00:37.480Z,3.44
2019-01-30T14:03:10.044Z,3.38
2019-01-30T14:05:41.873Z,3.19
2019-01-30T14:08:14.822Z,3.41
2019-01-30T14:10:46.734Z,3.38
2019-01-30T14:13:18.640Z,3.26
2019-01-30T14:15:50.463Z,3.17
2019-01-30T14:18:22.848Z,3.07
2019-01-30T14:20:54.658Z,3.14
2019-01-30T14:23:28.737Z,3.22
2019-01-30T14:26:00.541Z,3.11
2019-01-30T14:28:32.401Z,2.96
2019-01-30T14:31:04.698Z,2.88
2019-01-30T14:33:36.680Z,2.95
2019-01-30T14:36:08.564Z,2.91
2019-01-30T14:38:40.393Z,2.85
2019-01-30T14:41:13.311Z,2.86
2019-01-30T14:43:45.225Z,2.98
2019-01-30T14:46:17.115Z,2.89
2019-01-30T14:48:48.928Z,2.78
2019-01-30T14:51:20.798Z,2.76
2019-01-30T14:53:54.820Z,2.74
2019-01-30T14:56:28.491Z,2.71
2019-01-30T14:59:00.462Z,2.65
2019-01-30T15:01:32.785Z,2.63
2019-01-30T15:04:09.881Z,2.51
2019-01-30T15:06:38.566Z,2.39
2019-01-30T15:09:11.658Z,2.27
2019-01-30T15:11:45.716Z,2.16
2019-01-30T15:14:17.841Z,2.09
2019-01-30T15:16:49.698Z,2.05
2019-01-30T15:19:21.615Z,2.01
2019-01-30T15:21:53.466Z,1.88
2019-01-30T15:24:25.381Z,1.81
2019-01-30T15:26:57.503Z,1.75
2019-01-30T15:29:30.383Z,1.66
2019-01-30T15:32:02.224Z,1.64
2019-01-30T15:34:34.195Z,1.58
2019-01-30T15:37:06.087Z,1.43
2019-01-30T15:39:37.987Z,1.53
2019-01-30T15:42:09.978Z,1.35
2019-01-30T15:44:41.906Z,1.28
2019-01-30T15:47:13.938Z,1.27
2019-01-30T15:49:45.908Z,1.14
2019-01-30T15:52:17.869Z,1.08
2019-01-30T15:54:49.822Z,1.07
2019-01-30T15:57:21.728Z,0.98
2019-01-30T16:00:02.309Z,0.93
2019-01-30T16:02:34.667Z,0.88
2019-01-30T16:05:10.285Z,0.81
2019-01-30T16:07:44.788Z,0.72
2019-01-30T16:11:03.435Z,0.69
2019-01-30T17:25:31.105Z,0.25
2019-01-30T17:28:07.326Z,0.28
2019-01-30T17:30:55.443Z,0.13
2019-01-30T17:33:27.435Z,0.03
2019-01-30T17:35:59.308Z,0.08
2019-01-30T17:38:37.176Z,0.04
2019-01-30T17:41:09.757Z,0.09
2019-01-30T17:43:44.587Z,0.15
2019-01-30T17:46:22.347Z,0.21
2019-01-30T17:48:54.522Z,0.17
2019-01-30T17:51:26.414Z,0.23
2019-01-30T17:53:58.314Z,0.21
2019-01-30T17:56:30.301Z,0.18
2019-01-30T17:59:02.183Z,0.08
2019-01-30T18:01:34.194Z,0.12
2019-01-30T18:04:09.041Z,0.17
2019-01-30T18:06:41.077Z,0.19
2019-01-30T18:09:13.418Z,0.21
2019-01-30T18:11:45.569Z,0.20
2019-01-30T18:14:17.608Z,0.18
2019-01-30T18:16:50.513Z,0.18
2019-01-30T18:19:22.416Z,0.27
2019-01-30T18:21:55.972Z,0.29
2019-01-30T18:24:29.756Z,0.26
2019-01-30T18:27:03.749Z,0.24
2019-01-30T18:29:38.790Z,0.24
2019-01-30T18:32:12.404Z,0.23
2019-01-30T18:34:46.556Z,0.23
2019-01-30T18:37:23.092Z,0.20
2019-01-30T18:40:18.028Z,0.20
2019-01-30T18:43:34.258Z,0.25
2019-01-30T18:46:07.458Z,0.13
2019-01-30T18:48:39.444Z,0.10
2019-01-30T18:51:12.970Z,0.04
2019-01-30T18:53:46.492Z,-0.05
2019-01-30T19:01:19.866Z,-0.20
2019-01-30T19:03:52.082Z,-0.14
2019-01-30T19:06:24.179Z,-0.11
2019-01-30T19:08:56.237Z,0.00
2019-01-30T19:11:28.270Z,0.04
2019-01-30T19:14:00.160Z,0.06
2019-01-30T19:16:32.081Z,-0.01
2019-01-30T19:19:07.956Z,0.02
2019-01-30T19:21:39.984Z,0.09
2019-01-30T19:24:11.965Z,0.04
2019-01-30T19:26:44.065Z,-0.01
2019-01-30T19:29:16.107Z,-0.07
2019-01-30T19:31:48.164Z,-0.09
2019-01-30T19:34:20.272Z,-0.16
2019-01-30T19:37:02.977Z,-0.22
2019-01-30T19:39:25.909Z,-0.24
2019-01-30T19:41:57.835Z,-0.15
2019-01-30T19:44:29.893Z,-0.15
2019-01-30T19:47:01.874Z,-0.20
2019-01-30T19:49:33.959Z,-0.23
2019-01-30T19:52:07.958Z,-0.24
2019-01-30T19:54:39.999Z,-0.19
2019-01-30T19:57:12.032Z,-0.23
2019-01-30T19:59:44.170Z,-0.29
2019-01-30T20:02:16.324Z,-0.31
2019-01-30T20:04:49.993Z,-0.36
2019-01-30T20:07:22.083Z,-0.41
2019-01-30T20:09:55.251Z,-0.45
2019-01-30T20:12:28.122Z,-0.46
2019-01-30T20:15:00.303Z,-0.48
2019-01-30T20:17:32.428Z,-1.63
2019-01-30T20:20:06.057Z,-0.43
2019-01-30T20:22:38.072Z,-0.44
2019-01-30T20:25:23.576Z,-0.51
2019-01-30T20:27:56.852Z,-0.45
2019-01-30T20:30:28.939Z,-0.52
2019-01-30T20:33:00.993Z,-0.51
2019-01-30T20:35:32.973Z,-0.56
2019-01-30T20:38:04.919Z,-0.58
2019-01-30T20:40:36.835Z,-0.62
2019-01-30T20:43:10.987Z,-0.68
2019-01-30T20:45:43.087Z,-0.66
2019-01-30T20:48:15.138Z,-0.70
2019-01-30T20:50:46.988Z,-0.70
2019-01-30T20:53:18.847Z,-0.68
2019-01-30T20:55:50.701Z,-0.73
2019-01-30T20:58:22.523Z,-0.74
2019-01-30T21:00:54.387Z,-0.65
2019-01-30T21:03:26.269Z,-0.68
2019-01-30T21:05:58.129Z,-0.79
2019-01-30T21:08:29.935Z,-0.88
2019-01-30T21:11:03.163Z,-0.87
2019-01-30T21:13:34.981Z,-0.90
2019-01-30T21:16:06.816Z,-0.88
2019-01-30T21:18:38.607Z,-0.92
2019-01-30T21:21:10.535Z,-0.95
2019-01-30T21:23:42.462Z,-0.98
2019-01-30T21:26:14.408Z,-0.86
2019-01-30T21:28:46.529Z,-0.85
2019-01-30T21:31:18.307Z,-0.90
2019-01-30T21:33:50.205Z,-0.90
2019-01-30T21:36:22.042Z,-0.84
2019-01-30T21:38:53.837Z,-0.85
2019-01-30T21:41:25.932Z,-0.87
2019-01-30T21:43:57.703Z,-0.94
2019-01-30T21:46:29.541Z,-0.90
2019-01-30T21:49:01.351Z,-0.95
2019-01-30T21:51:33.246Z,-1.00
2019-01-30T21:54:05.048Z,-1.00
2019-01-30T21:56:36.975Z,-0.93
2019-01-30T21:59:08.864Z,-0.98
2019-01-30T22:01:40.783Z,-0.86
2019-01-30T22:04:12.744Z,-0.82
2019-01-30T22:06:44.547Z,-0.93
2019-01-30T22:09:16.341Z,-0.93
2019-01-30T22:11:48.243Z,-1.01
2019-01-30T22:14:22.847Z,-1.04
2019-01-30T22:16:54.666Z,-1.02
2019-01-30T22:19:26.456Z,-0.96
2019-01-30T22:21:58.342Z,-1.04
2019-01-30T22:24:30.218Z,-1.14
2019-01-30T22:27:02.062Z,-1.06
2019-01-30T22:29:33.974Z,-1.02
2019-01-30T22:32:06.122Z,-0.97
2019-01-30T22:34:38.078Z,-0.90
2019-01-30T22:37:10.045Z,-0.93
2019-01-30T22:39:41.854Z,-0.93
2019-01-30T22:42:13.614Z,-1.09
2019-01-30T22:44:45.451Z,-1.17
2019-01-30T22:47:17.246Z,-1.25
2019-01-30T22:49:50.269Z,-1.28
2019-01-30T22:52:22.192Z,-1.28
2019-01-30T22:54:54.034Z,-1.32
2019-01-30T22:57:25.801Z,-1.33
2019-01-30T22:59:57.632Z,-1.33
2019-01-30T23:02:29.587Z,-1.27
2019-01-30T23:05:17.756Z,-1.34
2019-01-30T23:08:32.262Z,-1.18
2019-01-30T23:12:13.041Z,-1.06
2019-01-30T23:15:11.918Z,-1.09
2019-01-30T23:18:31.397Z,-0.94
2019-01-30T23:21:12.833Z,-1.00
2019-01-30T23:24:25.470Z,-1.13
2019-01-30T23:27:29.030Z,-1.21
2019-01-30T23:30:41.316Z,-1.26
2019-01-30T23:33:49.277Z,-1.34
2019-01-30T23:37:02.316Z,-1.29
2019-01-30T23:40:24.755Z,-1.31
2019-01-30T23:43:53.573Z,-1.38
2019-01-30T23:47:01.885Z,-1.34
2019-01-30T23:50:10.699Z,-1.25
2019-01-30T23:53:56.734Z,-1.13
2019-01-30T23:57:49.357Z,-1.15
